sensor_id;sensor_type;location;lat;lon;timestamp;temperature;humidity
75899;DHT22;64576;50.460;4.866;2023-06-24T00:00:33;18.08;85.51
75899;DHT22;64576;50.460;4.866;2023-06-24T00:02:59;17.94;85.85
75899;DHT22;64576;50.460;4.866;2023-06-24T00:05:27;18.01;85.95
75899;DHT22;64576;50.460;4.866;2023-06-24T00:07:52;17.93;85.70
75899;DHT22;64576;50.460;4.866;2023-06-24T00:10:21;17.89;86.08
75899;DHT22;64576;50.460;4.866;2023-06-24T00:12:47;17.83;86.32
75899;DHT22;64576;50.460;4.866;2023-06-24T00:15:12;17.62;86.94
75899;DHT22;64576;50.460;4.866;2023-06-24T00:17:38;17.52;87.40
75899;DHT22;64576;50.460;4.866;2023-06-24T00:20:05;17.57;87.69
75899;DHT22;64576;50.460;4.866;2023-06-24T00:22:33;17.55;87.99
75899;DHT22;64576;50.460;4.866;2023-06-24T00:24:58;17.49;87.92
75899;DHT22;64576;50.460;4.866;2023-06-24T00:27:26;17.34;88.22
75899;DHT22;64576;50.460;4.866;2023-06-24T00:29:51;17.32;88.75
75899;DHT22;64576;50.460;4.866;2023-06-24T00:32:17;17.24;89.19
75899;DHT22;64576;50.460;4.866;2023-06-24T00:34:42;17.22;89.42
75899;DHT22;64576;50.460;4.866;2023-06-24T00:37:09;17.14;89.72
75899;DHT22;64576;50.460;4.866;2023-06-24T00:39:34;17.01;90.64
75899;DHT22;64576;50.460;4.866;2023-06-24T00:42:00;16.94;90.47
75899;DHT22;64576;50.460;4.866;2023-06-24T00:44:25;16.87;91.04
75899;DHT22;64576;50.460;4.866;2023-06-24T00:46:51;16.67;91.58
75899;DHT22;64576;50.460;4.866;2023-06-24T00:49:16;16.70;91.73
75899;DHT22;64576;50.460;4.866;2023-06-24T00:51:41;16.59;90.99
75899;DHT22;64576;50.460;4.866;2023-06-24T00:54:16;16.59;91.04
75899;DHT22;64576;50.460;4.866;2023-06-24T00:56:41;16.57;91.28
75899;DHT22;64576;50.460;4.866;2023-06-24T00:59:10;16.52;91.39
75899;DHT22;64576;50.460;4.866;2023-06-24T01:01:38;16.43;91.28
75899;DHT22;64576;50.460;4.866;2023-06-24T01:04:04;16.53;90.44
75899;DHT22;64576;50.460;4.866;2023-06-24T01:06:30;16.70;89.21
75899;DHT22;64576;50.460;4.866;2023-06-24T01:08:56;16.73;88.88
75899;DHT22;64576;50.460;4.866;2023-06-24T01:11:23;16.70;88.84
75899;DHT22;64576;50.460;4.866;2023-06-24T01:13:49;16.61;89.10
75899;DHT22;64576;50.460;4.866;2023-06-24T01:18:48;16.53;90.21
75899;DHT22;64576;50.460;4.866;2023-06-24T01:21:39;16.48;90.42
75899;DHT22;64576;50.460;4.866;2023-06-24T01:24:34;16.45;90.38
75899;DHT22;64576;50.460;4.866;2023-06-24T01:33:04;16.33;90.35
75899;DHT22;64576;50.460;4.866;2023-06-24T01:35:32;16.43;90.16
75899;DHT22;64576;50.460;4.866;2023-06-24T01:38:03;16.43;90.06
75899;DHT22;64576;50.460;4.866;2023-06-24T01:40:44;16.39;89.99
75899;DHT22;64576;50.460;4.866;2023-06-24T01:43:12;16.42;89.85
75899;DHT22;64576;50.460;4.866;2023-06-24T01:45:56;16.43;89.93
75899;DHT22;64576;50.460;4.866;2023-06-24T01:48:25;16.42;89.72
75899;DHT22;64576;50.460;4.866;2023-06-24T01:51:01;16.38;89.60
75899;DHT22;64576;50.460;4.866;2023-06-24T01:53:33;16.26;89.81
75899;DHT22;64576;50.460;4.866;2023-06-24T01:56:00;16.16;90.30
75899;DHT22;64576;50.460;4.866;2023-06-24T01:58:27;15.98;91.09
75899;DHT22;64576;50.460;4.866;2023-06-24T02:00:55;15.84;91.97
75899;DHT22;64576;50.460;4.866;2023-06-24T02:03:23;15.63;92.43
75899;DHT22;64576;50.460;4.866;2023-06-24T02:05:50;15.44;93.29
75899;DHT22;64576;50.460;4.866;2023-06-24T02:08:17;15.47;93.76
75899;DHT22;64576;50.460;4.866;2023-06-24T02:10:43;15.42;93.43
75899;DHT22;64576;50.460;4.866;2023-06-24T02:13:11;15.33;93.57
75899;DHT22;64576;50.460;4.866;2023-06-24T02:15:38;15.49;93.11
75899;DHT22;64576;50.460;4.866;2023-06-24T02:18:04;15.36;93.22
75899;DHT22;64576;50.460;4.866;2023-06-24T02:20:31;15.32;93.32
75899;DHT22;64576;50.460;4.866;2023-06-24T02:22:58;15.42;92.70
75899;DHT22;64576;50.460;4.866;2023-06-24T02:25:25;15.25;92.81
75899;DHT22;64576;50.460;4.866;2023-06-24T02:27:52;15.36;91.91
75899;DHT22;64576;50.460;4.866;2023-06-24T02:30:19;15.40;91.62
75899;DHT22;64576;50.460;4.866;2023-06-24T02:32:45;15.28;92.79
75899;DHT22;64576;50.460;4.866;2023-06-24T02:35:11;15.02;93.12
75899;DHT22;64576;50.460;4.866;2023-06-24T02:37:36;14.87;93.21
75899;DHT22;64576;50.460;4.866;2023-06-24T02:40:02;14.75;93.37
75899;DHT22;64576;50.460;4.866;2023-06-24T02:42:29;14.71;93.57
75899;DHT22;64576;50.460;4.866;2023-06-24T02:44:54;14.61;94.54
75899;DHT22;64576;50.460;4.866;2023-06-24T02:47:20;14.46;94.92
75899;DHT22;64576;50.460;4.866;2023-06-24T02:49:47;14.36;95.48
75899;DHT22;64576;50.460;4.866;2023-06-24T02:52:15;14.18;95.27
75899;DHT22;64576;50.460;4.866;2023-06-24T02:54:41;14.01;96.31
75899;DHT22;64576;50.460;4.866;2023-06-24T02:57:08;13.82;96.27
75899;DHT22;64576;50.460;4.866;2023-06-24T02:59:33;13.99;98.09
75899;DHT22;64576;50.460;4.866;2023-06-24T03:01:59;14.06;98.73
75899;DHT22;64576;50.460;4.866;2023-06-24T03:04:26;14.08;98.58
75899;DHT22;64576;50.460;4.866;2023-06-24T03:06:51;13.99;98.33
75899;DHT22;64576;50.460;4.866;2023-06-24T03:09:18;13.97;98.25
75899;DHT22;64576;50.460;4.866;2023-06-24T03:11:44;13.91;98.24
75899;DHT22;64576;50.460;4.866;2023-06-24T03:14:12;13.89;98.37
75899;DHT22;64576;50.460;4.866;2023-06-24T03:16:38;14.02;98.71
75899;DHT22;64576;50.460;4.866;2023-06-24T03:19:06;13.99;98.32
75899;DHT22;64576;50.460;4.866;2023-06-24T03:21:32;13.99;98.87
75899;DHT22;64576;50.460;4.866;2023-06-24T03:23:58;13.94;99.12
75899;DHT22;64576;50.460;4.866;2023-06-24T03:26:34;13.94;98.76
75899;DHT22;64576;50.460;4.866;2023-06-24T03:29:00;13.86;98.28
75899;DHT22;64576;50.460;4.866;2023-06-24T03:31:26;13.85;98.30
75899;DHT22;64576;50.460;4.866;2023-06-24T03:33:51;13.94;98.42
75899;DHT22;64576;50.460;4.866;2023-06-24T03:36:17;14.08;98.65
75899;DHT22;64576;50.460;4.866;2023-06-24T03:38:42;14.23;98.13
75899;DHT22;64576;50.460;4.866;2023-06-24T03:41:07;14.26;97.69
75899;DHT22;64576;50.460;4.866;2023-06-24T03:43:34;14.37;97.18
75899;DHT22;64576;50.460;4.866;2023-06-24T03:45:59;14.64;95.92
75899;DHT22;64576;50.460;4.866;2023-06-24T03:48:25;14.87;94.72
75899;DHT22;64576;50.460;4.866;2023-06-24T03:50:51;15.09;93.71
75899;DHT22;64576;50.460;4.866;2023-06-24T03:53:16;15.35;92.71
75899;DHT22;64576;50.460;4.866;2023-06-24T03:55:41;15.57;92.05
75899;DHT22;64576;50.460;4.866;2023-06-24T03:58:07;15.66;91.66
75899;DHT22;64576;50.460;4.866;2023-06-24T04:00:33;15.77;91.35
75899;DHT22;64576;50.460;4.866;2023-06-24T04:02:59;15.91;89.81
75899;DHT22;64576;50.460;4.866;2023-06-24T04:05:26;16.08;88.62
75899;DHT22;64576;50.460;4.866;2023-06-24T04:07:51;16.36;85.72
75899;DHT22;64576;50.460;4.866;2023-06-24T04:10:18;16.69;85.10
75899;DHT22;64576;50.460;4.866;2023-06-24T04:12:44;16.98;83.27
75899;DHT22;64576;50.460;4.866;2023-06-24T04:15:09;17.24;82.04
75899;DHT22;64576;50.460;4.866;2023-06-24T04:17:35;17.53;81.72
75899;DHT22;64576;50.460;4.866;2023-06-24T04:20:00;17.67;82.72
75899;DHT22;64576;50.460;4.866;2023-06-24T04:22:28;17.70;83.19
75899;DHT22;64576;50.460;4.866;2023-06-24T04:24:53;17.61;83.35
75899;DHT22;64576;50.460;4.866;2023-06-24T04:27:19;17.73;82.48
75899;DHT22;64576;50.460;4.866;2023-06-24T04:29:44;17.79;82.03
75899;DHT22;64576;50.460;4.866;2023-06-24T04:32:09;17.84;80.26
75899;DHT22;64576;50.460;4.866;2023-06-24T04:34:35;17.87;79.44
75899;DHT22;64576;50.460;4.866;2023-06-24T04:37:00;18.00;79.53
75899;DHT22;64576;50.460;4.866;2023-06-24T04:39:25;18.17;79.88
75899;DHT22;64576;50.460;4.866;2023-06-24T04:41:51;18.28;79.98
75899;DHT22;64576;50.460;4.866;2023-06-24T04:44:16;18.89;78.77
75899;DHT22;64576;50.460;4.866;2023-06-24T04:46:42;19.01;78.01
75899;DHT22;64576;50.460;4.866;2023-06-24T04:49:07;19.22;78.14
75899;DHT22;64576;50.460;4.866;2023-06-24T04:51:32;19.69;77.48
75899;DHT22;64576;50.460;4.866;2023-06-24T04:53:58;19.61;77.75
75899;DHT22;64576;50.460;4.866;2023-06-24T04:56:24;19.55;77.90
75899;DHT22;64576;50.460;4.866;2023-06-24T04:58:51;19.67;77.75
75899;DHT22;64576;50.460;4.866;2023-06-24T05:01:17;19.65;77.28
75899;DHT22;64576;50.460;4.866;2023-06-24T05:03:42;20.04;76.49
75899;DHT22;64576;50.460;4.866;2023-06-24T05:06:08;20.01;76.13
75899;DHT22;64576;50.460;4.866;2023-06-24T05:08:33;20.16;75.52
75899;DHT22;64576;50.460;4.866;2023-06-24T05:10:59;20.11;77.09
75899;DHT22;64576;50.460;4.866;2023-06-24T05:13:24;20.13;76.96
75899;DHT22;64576;50.460;4.866;2023-06-24T05:15:49;20.23;76.71
75899;DHT22;64576;50.460;4.866;2023-06-24T05:18:15;20.14;76.42
75899;DHT22;64576;50.460;4.866;2023-06-24T05:20:40;20.30;76.35
75899;DHT22;64576;50.460;4.866;2023-06-24T05:23:05;20.64;75.64
75899;DHT22;64576;50.460;4.866;2023-06-24T05:25:31;21.02;74.06
75899;DHT22;64576;50.460;4.866;2023-06-24T05:27:57;21.26;72.94
75899;DHT22;64576;50.460;4.866;2023-06-24T05:30:22;21.23;72.47
75899;DHT22;64576;50.460;4.866;2023-06-24T05:32:47;21.17;74.08
75899;DHT22;64576;50.460;4.866;2023-06-24T05:35:13;20.73;75.30
75899;DHT22;64576;50.460;4.866;2023-06-24T05:37:38;20.52;75.68
75899;DHT22;64576;50.460;4.866;2023-06-24T05:40:04;20.42;76.17
75899;DHT22;64576;50.460;4.866;2023-06-24T05:42:30;20.31;76.10
75899;DHT22;64576;50.460;4.866;2023-06-24T05:44:55;20.45;76.46
75899;DHT22;64576;50.460;4.866;2023-06-24T05:47:21;20.79;74.28
75899;DHT22;64576;50.460;4.866;2023-06-24T05:49:46;20.95;75.23
75899;DHT22;64576;50.460;4.866;2023-06-24T05:52:12;20.86;75.11
75899;DHT22;64576;50.460;4.866;2023-06-24T05:54:37;21.13;74.29
75899;DHT22;64576;50.460;4.866;2023-06-24T05:57:03;21.08;74.25
75899;DHT22;64576;50.460;4.866;2023-06-24T05:59:31;21.65;73.11
75899;DHT22;64576;50.460;4.866;2023-06-24T06:01:57;22.03;72.65
75899;DHT22;64576;50.460;4.866;2023-06-24T06:04:22;22.24;71.32
75899;DHT22;64576;50.460;4.866;2023-06-24T06:06:47;22.26;71.45
75899;DHT22;64576;50.460;4.866;2023-06-24T06:09:13;22.34;71.00
75899;DHT22;64576;50.460;4.866;2023-06-24T06:11:38;22.54;70.30
75899;DHT22;64576;50.460;4.866;2023-06-24T06:14:04;23.23;68.78
75899;DHT22;64576;50.460;4.866;2023-06-24T06:16:29;22.95;69.00
75899;DHT22;64576;50.460;4.866;2023-06-24T06:18:54;23.46;67.55
75899;DHT22;64576;50.460;4.866;2023-06-24T06:21:20;23.82;63.65
75899;DHT22;64576;50.460;4.866;2023-06-24T06:23:45;23.33;66.26
75899;DHT22;64576;50.460;4.866;2023-06-24T06:26:10;23.63;65.94
75899;DHT22;64576;50.460;4.866;2023-06-24T06:28:36;24.57;64.11
75899;DHT22;64576;50.460;4.866;2023-06-24T06:31:01;24.84;62.01
75899;DHT22;64576;50.460;4.866;2023-06-24T06:33:26;24.99;61.62
75899;DHT22;64576;50.460;4.866;2023-06-24T06:35:52;25.01;62.56
75899;DHT22;64576;50.460;4.866;2023-06-24T06:38:17;25.01;61.09
75899;DHT22;64576;50.460;4.866;2023-06-24T06:40:42;25.12;61.28
75899;DHT22;64576;50.460;4.866;2023-06-24T06:43:08;25.51;59.95
75899;DHT22;64576;50.460;4.866;2023-06-24T06:45:33;25.65;56.21
75899;DHT22;64576;50.460;4.866;2023-06-24T06:47:58;25.29;49.04
75899;DHT22;64576;50.460;4.866;2023-06-24T06:50:24;25.10;50.11
75899;DHT22;64576;50.460;4.866;2023-06-24T06:52:49;24.92;50.42
75899;DHT22;64576;50.460;4.866;2023-06-24T06:55:15;25.47;51.51
75899;DHT22;64576;50.460;4.866;2023-06-24T06:57:40;26.00;51.32
75899;DHT22;64576;50.460;4.866;2023-06-24T07:00:06;26.86;50.09
75899;DHT22;64576;50.460;4.866;2023-06-24T07:02:31;26.46;54.38
75899;DHT22;64576;50.460;4.866;2023-06-24T07:04:57;27.23;52.61
75899;DHT22;64576;50.460;4.866;2023-06-24T07:07:22;26.45;44.67
75899;DHT22;64576;50.460;4.866;2023-06-24T07:09:47;26.26;43.31
75899;DHT22;64576;50.460;4.866;2023-06-24T07:12:16;25.90;44.12
75899;DHT22;64576;50.460;4.866;2023-06-24T07:14:42;25.98;43.43
75899;DHT22;64576;50.460;4.866;2023-06-24T07:17:07;25.60;44.86
75899;DHT22;64576;50.460;4.866;2023-06-24T07:19:32;25.69;44.65
75899;DHT22;64576;50.460;4.866;2023-06-24T07:21:58;25.51;44.23
75899;DHT22;64576;50.460;4.866;2023-06-24T07:24:23;26.38;45.58
75899;DHT22;64576;50.460;4.866;2023-06-24T07:26:48;27.25;45.37
75899;DHT22;64576;50.460;4.866;2023-06-24T07:29:14;27.94;44.67
75899;DHT22;64576;50.460;4.866;2023-06-24T07:31:39;27.41;44.52
75899;DHT22;64576;50.460;4.866;2023-06-24T07:34:05;28.04;43.06
75899;DHT22;64576;50.460;4.866;2023-06-24T07:36:30;27.37;43.55
75899;DHT22;64576;50.460;4.866;2023-06-24T07:38:56;27.53;43.28
75899;DHT22;64576;50.460;4.866;2023-06-24T07:41:21;27.86;41.87
75899;DHT22;64576;50.460;4.866;2023-06-24T07:43:46;27.66;42.39
75899;DHT22;64576;50.460;4.866;2023-06-24T07:46:12;27.83;41.97
75899;DHT22;64576;50.460;4.866;2023-06-24T07:48:37;25.97;43.40
75899;DHT22;64576;50.460;4.866;2023-06-24T07:51:03;26.32;43.87
75899;DHT22;64576;50.460;4.866;2023-06-24T07:53:28;26.97;42.71
75899;DHT22;64576;50.460;4.866;2023-06-24T07:55:53;27.14;42.00
75899;DHT22;64576;50.460;4.866;2023-06-24T07:58:19;27.72;42.06
75899;DHT22;64576;50.460;4.866;2023-06-24T08:00:45;27.51;39.61
75899;DHT22;64576;50.460;4.866;2023-06-24T08:03:11;26.80;41.68
75899;DHT22;64576;50.460;4.866;2023-06-24T08:05:36;26.90;42.52
75899;DHT22;64576;50.460;4.866;2023-06-24T08:08:04;27.14;43.77
75899;DHT22;64576;50.460;4.866;2023-06-24T08:10:29;26.91;42.41
75899;DHT22;64576;50.460;4.866;2023-06-24T08:12:55;27.89;42.18
75899;DHT22;64576;50.460;4.866;2023-06-24T08:15:20;27.89;41.26
75899;DHT22;64576;50.460;4.866;2023-06-24T08:17:53;27.96;40.97
75899;DHT22;64576;50.460;4.866;2023-06-24T08:20:22;28.62;40.33
75899;DHT22;64576;50.460;4.866;2023-06-24T08:22:48;27.65;41.28
75899;DHT22;64576;50.460;4.866;2023-06-24T08:25:14;28.38;40.35
75899;DHT22;64576;50.460;4.866;2023-06-24T08:27:39;27.74;42.27
75899;DHT22;64576;50.460;4.866;2023-06-24T08:30:08;27.37;43.62
75899;DHT22;64576;50.460;4.866;2023-06-24T08:32:34;27.70;42.66
75899;DHT22;64576;50.460;4.866;2023-06-24T08:34:59;28.80;42.17
75899;DHT22;64576;50.460;4.866;2023-06-24T08:37:24;30.14;37.85
75899;DHT22;64576;50.460;4.866;2023-06-24T08:39:50;29.90;38.35
75899;DHT22;64576;50.460;4.866;2023-06-24T08:42:15;29.79;39.64
75899;DHT22;64576;50.460;4.866;2023-06-24T08:44:41;29.85;38.76
75899;DHT22;64576;50.460;4.866;2023-06-24T08:47:06;29.48;39.15
75899;DHT22;64576;50.460;4.866;2023-06-24T08:49:32;29.14;39.62
75899;DHT22;64576;50.460;4.866;2023-06-24T08:52:04;29.82;37.81
75899;DHT22;64576;50.460;4.866;2023-06-24T08:54:35;30.14;38.75
75899;DHT22;64576;50.460;4.866;2023-06-24T08:57:02;31.05;37.51
75899;DHT22;64576;50.460;4.866;2023-06-24T08:59:33;30.98;35.65
75899;DHT22;64576;50.460;4.866;2023-06-24T09:01:59;30.27;37.03
75899;DHT22;64576;50.460;4.866;2023-06-24T09:04:24;30.03;36.82
75899;DHT22;64576;50.460;4.866;2023-06-24T09:06:49;29.82;37.17
75899;DHT22;64576;50.460;4.866;2023-06-24T09:09:22;30.27;35.94
75899;DHT22;64576;50.460;4.866;2023-06-24T09:11:55;30.19;36.35
75899;DHT22;64576;50.460;4.866;2023-06-24T09:14:21;30.84;35.09
75899;DHT22;64576;50.460;4.866;2023-06-24T09:16:55;31.58;33.99
75899;DHT22;64576;50.460;4.866;2023-06-24T09:19:25;32.08;34.04
75899;DHT22;64576;50.460;4.866;2023-06-24T09:21:55;30.60;35.48
75899;DHT22;64576;50.460;4.866;2023-06-24T09:24:21;32.08;34.50
75899;DHT22;64576;50.460;4.866;2023-06-24T09:26:46;32.68;33.00
75899;DHT22;64576;50.460;4.866;2023-06-24T09:29:13;32.37;33.99
75899;DHT22;64576;50.460;4.866;2023-06-24T09:31:49;33.03;31.79
75899;DHT22;64576;50.460;4.866;2023-06-24T09:34:15;32.25;32.40
75899;DHT22;64576;50.460;4.866;2023-06-24T09:36:45;31.73;33.54
75899;DHT22;64576;50.460;4.866;2023-06-24T09:39:11;31.25;33.18
75899;DHT22;64576;50.460;4.866;2023-06-24T09:41:40;30.89;33.37
75899;DHT22;64576;50.460;4.866;2023-06-24T09:44:11;30.96;33.41
75899;DHT22;64576;50.460;4.866;2023-06-24T09:46:37;31.63;31.48
75899;DHT22;64576;50.460;4.866;2023-06-24T09:49:06;30.43;32.97
75899;DHT22;64576;50.460;4.866;2023-06-24T09:51:37;31.66;32.74
75899;DHT22;64576;50.460;4.866;2023-06-24T09:54:05;32.04;32.94
75899;DHT22;64576;50.460;4.866;2023-06-24T09:56:33;33.01;30.89
75899;DHT22;64576;50.460;4.866;2023-06-24T09:59:01;31.34;33.50
75899;DHT22;64576;50.460;4.866;2023-06-24T10:01:28;29.89;35.02
75899;DHT22;64576;50.460;4.866;2023-06-24T10:03:54;31.85;33.62
75899;DHT22;64576;50.460;4.866;2023-06-24T10:06:20;31.30;33.43
75899;DHT22;64576;50.460;4.866;2023-06-24T10:08:45;32.50;32.63
75899;DHT22;64576;50.460;4.866;2023-06-24T10:11:11;31.57;32.69
75899;DHT22;64576;50.460;4.866;2023-06-24T10:13:36;32.18;33.30
75899;DHT22;64576;50.460;4.866;2023-06-24T10:16:02;31.64;33.51
75899;DHT22;64576;50.460;4.866;2023-06-24T10:20:56;31.98;33.83
75899;DHT22;64576;50.460;4.866;2023-06-24T10:23:21;30.85;34.15
75899;DHT22;64576;50.460;4.866;2023-06-24T10:25:47;31.95;33.42
75899;DHT22;64576;50.460;4.866;2023-06-24T10:28:13;34.21;29.97
75899;DHT22;64576;50.460;4.866;2023-06-24T10:30:38;35.00;29.58
75899;DHT22;64576;50.460;4.866;2023-06-24T10:33:09;33.38;31.66
75899;DHT22;64576;50.460;4.866;2023-06-24T10:35:41;34.58;29.30
75899;DHT22;64576;50.460;4.866;2023-06-24T10:38:10;34.05;29.75
75899;DHT22;64576;50.460;4.866;2023-06-24T10:40:40;32.25;30.35
75899;DHT22;64576;50.460;4.866;2023-06-24T10:43:28;33.22;30.34
75899;DHT22;64576;50.460;4.866;2023-06-24T10:45:57;31.58;31.00
75899;DHT22;64576;50.460;4.866;2023-06-24T10:48:24;32.35;30.70
75899;DHT22;64576;50.460;4.866;2023-06-24T10:50:49;34.11;29.15
75899;DHT22;64576;50.460;4.866;2023-06-24T10:53:15;34.24;28.66
75899;DHT22;64576;50.460;4.866;2023-06-24T10:55:43;33.17;29.78
75899;DHT22;64576;50.460;4.866;2023-06-24T10:58:10;32.30;29.85
75899;DHT22;64576;50.460;4.866;2023-06-24T11:00:37;33.31;28.07
75899;DHT22;64576;50.460;4.866;2023-06-24T11:03:13;31.56;28.95
75899;DHT22;64576;50.460;4.866;2023-06-24T11:05:43;32.39;28.79
75899;DHT22;64576;50.460;4.866;2023-06-24T11:08:09;32.39;29.00
75899;DHT22;64576;50.460;4.866;2023-06-24T11:10:45;31.89;29.93
75899;DHT22;64576;50.460;4.866;2023-06-24T11:13:11;32.15;30.82
75899;DHT22;64576;50.460;4.866;2023-06-24T11:15:38;32.77;29.20
75899;DHT22;64576;50.460;4.866;2023-06-24T11:18:04;32.26;29.40
75899;DHT22;64576;50.460;4.866;2023-06-24T11:20:30;32.13;30.09
75899;DHT22;64576;50.460;4.866;2023-06-24T11:22:55;32.71;30.78
75899;DHT22;64576;50.460;4.866;2023-06-24T11:25:21;34.15;28.86
75899;DHT22;64576;50.460;4.866;2023-06-24T11:27:47;33.33;28.21
75899;DHT22;64576;50.460;4.866;2023-06-24T11:30:16;32.63;28.31
75899;DHT22;64576;50.460;4.866;2023-06-24T11:32:43;32.25;28.33
75899;DHT22;64576;50.460;4.866;2023-06-24T11:35:09;31.82;28.82
75899;DHT22;64576;50.460;4.866;2023-06-24T11:37:35;32.92;28.18
75899;DHT22;64576;50.460;4.866;2023-06-24T11:40:08;32.81;29.01
75899;DHT22;64576;50.460;4.866;2023-06-24T11:42:38;33.97;27.20
75899;DHT22;64576;50.460;4.866;2023-06-24T11:45:08;33.43;28.14
75899;DHT22;64576;50.460;4.866;2023-06-24T11:47:35;33.86;28.36
75899;DHT22;64576;50.460;4.866;2023-06-24T11:50:02;34.62;28.50
75899;DHT22;64576;50.460;4.866;2023-06-24T11:52:44;34.00;27.62
75899;DHT22;64576;50.460;4.866;2023-06-24T11:58:02;31.86;29.64
75899;DHT22;64576;50.460;4.866;2023-06-24T12:00:35;31.74;29.15
75899;DHT22;64576;50.460;4.866;2023-06-24T12:03:07;33.59;28.12
75899;DHT22;64576;50.460;4.866;2023-06-24T12:05:34;33.48;28.12
75899;DHT22;64576;50.460;4.866;2023-06-24T12:08:08;34.31;27.74
75899;DHT22;64576;50.460;4.866;2023-06-24T12:10:34;34.85;26.56
75899;DHT22;64576;50.460;4.866;2023-06-24T12:13:01;33.26;27.24
75899;DHT22;64576;50.460;4.866;2023-06-24T12:15:27;31.95;29.32
75899;DHT22;64576;50.460;4.866;2023-06-24T12:17:53;32.98;28.85
75899;DHT22;64576;50.460;4.866;2023-06-24T12:20:18;33.24;29.55
75899;DHT22;64576;50.460;4.866;2023-06-24T12:22:48;32.84;29.90
75899;DHT22;64576;50.460;4.866;2023-06-24T12:25:14;33.65;29.06
75899;DHT22;64576;50.460;4.866;2023-06-24T12:27:41;34.32;27.86
75899;DHT22;64576;50.460;4.866;2023-06-24T12:30:08;33.87;28.69
75899;DHT22;64576;50.460;4.866;2023-06-24T12:32:33;33.93;28.33
75899;DHT22;64576;50.460;4.866;2023-06-24T12:34:59;32.80;30.25
75899;DHT22;64576;50.460;4.866;2023-06-24T12:37:24;33.74;28.83
75899;DHT22;64576;50.460;4.866;2023-06-24T12:39:49;32.53;31.23
75899;DHT22;64576;50.460;4.866;2023-06-24T12:42:18;32.53;30.53
75899;DHT22;64576;50.460;4.866;2023-06-24T12:44:43;32.40;30.21
75899;DHT22;64576;50.460;4.866;2023-06-24T12:47:09;33.73;29.92
75899;DHT22;64576;50.460;4.866;2023-06-24T12:49:34;33.07;29.27
75899;DHT22;64576;50.460;4.866;2023-06-24T12:52:01;32.23;29.43
75899;DHT22;64576;50.460;4.866;2023-06-24T12:54:26;31.95;30.19
75899;DHT22;64576;50.460;4.866;2023-06-24T12:56:52;32.11;30.73
75899;DHT22;64576;50.460;4.866;2023-06-24T12:59:17;32.92;29.60
75899;DHT22;64576;50.460;4.866;2023-06-24T13:01:42;31.92;31.33
75899;DHT22;64576;50.460;4.866;2023-06-24T13:04:10;31.74;29.57
75899;DHT22;64576;50.460;4.866;2023-06-24T13:06:36;32.25;29.75
75899;DHT22;64576;50.460;4.866;2023-06-24T13:09:01;32.05;29.38
75899;DHT22;64576;50.460;4.866;2023-06-24T13:11:27;32.44;29.69
75899;DHT22;64576;50.460;4.866;2023-06-24T13:13:53;33.26;30.75
75899;DHT22;64576;50.460;4.866;2023-06-24T13:16:18;33.48;30.75
75899;DHT22;64576;50.460;4.866;2023-06-24T13:18:44;32.92;30.63
75899;DHT22;64576;50.460;4.866;2023-06-24T13:21:09;31.33;34.19
75899;DHT22;64576;50.460;4.866;2023-06-24T13:23:35;33.26;33.38
75899;DHT22;64576;50.460;4.866;2023-06-24T13:26:02;32.84;33.03
75899;DHT22;64576;50.460;4.866;2023-06-24T13:28:28;33.41;31.88
75899;DHT22;64576;50.460;4.866;2023-06-24T13:30:53;33.83;32.93
75899;DHT22;64576;50.460;4.866;2023-06-24T13:33:19;33.12;33.55
75899;DHT22;64576;50.460;4.866;2023-06-24T13:35:45;33.79;31.27
75899;DHT22;64576;50.460;4.866;2023-06-24T13:38:10;33.36;31.74
75899;DHT22;64576;50.460;4.866;2023-06-24T13:40:37;34.07;32.77
75899;DHT22;64576;50.460;4.866;2023-06-24T13:43:03;33.10;33.14
75899;DHT22;64576;50.460;4.866;2023-06-24T13:45:28;32.13;34.58
75899;DHT22;64576;50.460;4.866;2023-06-24T13:47:53;33.24;33.53
75899;DHT22;64576;50.460;4.866;2023-06-24T13:50:20;33.25;33.77
75899;DHT22;64576;50.460;4.866;2023-06-24T13:52:46;33.77;32.69
75899;DHT22;64576;50.460;4.866;2023-06-24T13:55:11;34.13;31.88
75899;DHT22;64576;50.460;4.866;2023-06-24T13:57:36;34.63;31.29
75899;DHT22;64576;50.460;4.866;2023-06-24T14:00:02;33.86;32.78
75899;DHT22;64576;50.460;4.866;2023-06-24T14:02:28;34.97;31.67
75899;DHT22;64576;50.460;4.866;2023-06-24T14:04:53;34.18;32.33
75899;DHT22;64576;50.460;4.866;2023-06-24T14:07:19;32.77;33.22
75899;DHT22;64576;50.460;4.866;2023-06-24T14:09:44;33.62;32.50
75899;DHT22;64576;50.460;4.866;2023-06-24T14:12:10;34.27;33.49
75899;DHT22;64576;50.460;4.866;2023-06-24T14:14:35;35.27;31.48
75899;DHT22;64576;50.460;4.866;2023-06-24T14:17:02;32.37;33.84
75899;DHT22;64576;50.460;4.866;2023-06-24T14:19:27;32.92;33.91
75899;DHT22;64576;50.460;4.866;2023-06-24T14:21:53;34.01;33.35
75899;DHT22;64576;50.460;4.866;2023-06-24T14:24:19;33.21;32.63
75899;DHT22;64576;50.460;4.866;2023-06-24T14:26:44;34.61;32.73
75899;DHT22;64576;50.460;4.866;2023-06-24T14:29:14;34.17;31.71
75899;DHT22;64576;50.460;4.866;2023-06-24T14:31:39;35.27;31.68
75899;DHT22;64576;50.460;4.866;2023-06-24T14:34:05;35.44;30.74
75899;DHT22;64576;50.460;4.866;2023-06-24T14:36:30;36.63;29.88
75899;DHT22;64576;50.460;4.866;2023-06-24T14:38:55;35.40;31.07
75899;DHT22;64576;50.460;4.866;2023-06-24T14:41:21;34.55;32.42
75899;DHT22;64576;50.460;4.866;2023-06-24T14:43:46;33.80;31.53
75899;DHT22;64576;50.460;4.866;2023-06-24T14:46:11;34.14;33.05
75899;DHT22;64576;50.460;4.866;2023-06-24T14:48:37;35.71;31.64
75899;DHT22;64576;50.460;4.866;2023-06-24T14:51:02;35.03;31.78
75899;DHT22;64576;50.460;4.866;2023-06-24T14:53:27;34.79;30.94
75899;DHT22;64576;50.460;4.866;2023-06-24T14:55:53;34.79;31.66
75899;DHT22;64576;50.460;4.866;2023-06-24T14:58:18;34.18;32.23
75899;DHT22;64576;50.460;4.866;2023-06-24T15:00:43;34.11;32.39
75899;DHT22;64576;50.460;4.866;2023-06-24T15:03:09;33.73;32.51
75899;DHT22;64576;50.460;4.866;2023-06-24T15:05:34;35.37;32.05
75899;DHT22;64576;50.460;4.866;2023-06-24T15:08:00;35.44;31.15
75899;DHT22;64576;50.460;4.866;2023-06-24T15:10:25;34.44;32.63
75899;DHT22;64576;50.460;4.866;2023-06-24T15:12:50;34.51;32.04
75899;DHT22;64576;50.460;4.866;2023-06-24T15:15:17;34.42;32.38
75899;DHT22;64576;50.460;4.866;2023-06-24T15:17:43;34.82;32.42
75899;DHT22;64576;50.460;4.866;2023-06-24T15:20:10;35.47;31.21
75899;DHT22;64576;50.460;4.866;2023-06-24T15:22:36;35.02;31.13
75899;DHT22;64576;50.460;4.866;2023-06-24T15:25:01;35.03;31.02
75899;DHT22;64576;50.460;4.866;2023-06-24T15:27:27;34.23;32.61
75899;DHT22;64576;50.460;4.866;2023-06-24T15:29:52;35.17;30.53
75899;DHT22;64576;50.460;4.866;2023-06-24T15:32:18;33.55;32.34
75899;DHT22;64576;50.460;4.866;2023-06-24T15:34:43;34.45;32.77
75899;DHT22;64576;50.460;4.866;2023-06-24T15:37:08;34.48;31.84
75899;DHT22;64576;50.460;4.866;2023-06-24T15:39:34;34.89;31.33